Flight Track Log - Related Links

Times and Time Zones

All times are in EDT time to prevent confusion due to time zone crossing. See the RAX1073 flight status page for this flight to view local times or setup timezone preferences in your user account.

Time Position Orientation Groundspeed Altitude Reporting Facility
EDT Latitude Longitude Course Direction KTS MPH feet Rate Location/Type
Tue 06:15:20 PM 32.3756 -90.2467 272° West 166 191 2,700  Level Memphis Center
Tue 06:16:20 PM 32.3775 -90.3131 272° West 194 223 5,500 3,300 Climbing Memphis Center
Tue 06:17:20 PM 32.3797 -90.3819 272° West 219 252 9,300 3,400 Climbing Memphis Center
Tue 06:18:20 PM 32.3797 -90.4581 270° West 225 259 12,300 2,700 Climbing Memphis Center
Tue 06:19:20 PM 32.3878 -90.5419 277° West 246 283 14,700 2,400 Climbing Memphis Center
Tue 06:20:20 PM 32.3897 -90.6428 271° West 279 321 17,100 2,300 Climbing Memphis Center
Tue 06:21:20 PM 32.3958 -90.7461 274° West 307 353 19,300 1,950 Climbing Memphis Center
Tue 06:22:20 PM 32.3994 -90.8592 272° West 330 380 21,000 1,709 Climbing Memphis Center
Tue 06:23:58 PM 32.4058 -91.0761 272° West 382 440 23,800 1,500 Climbing Houston Center
Tue 06:24:40 PM 32.4083 -91.1539 272° West 373 429 24,500 1,294 Climbing Fort Worth Center
Tue 06:25:40 PM 32.4147 -91.2814 273° West 381 438 26,000 1,650 Climbing Fort Worth Center
Tue 06:26:40 PM 32.4208 -91.4114 273° West 389 448 27,800 1,700 Climbing Fort Worth Center
Tue 06:27:40 PM 32.4247 -91.5367 272° West 389 448 29,400 1,400 Climbing Fort Worth Center
Tue 06:28:40 PM 32.4286 -91.6644 272° West 389 448 30,600 1,100 Climbing Fort Worth Center
Tue 06:29:40 PM 32.4325 -91.7944 272° West 389 448 31,600 1,100 Climbing Fort Worth Center
Tue 06:30:40 PM 32.4383 -91.9269 273° West 401 461 32,800 4,200 Climbing Fort Worth Center
Tue 06:31:40 PM 32.4439 -92.0572 273° West 401 461 40,000 1,200 Climbing Fort Worth Center
Tue 06:32:40 PM 32.4469 -92.1825 272° West 401 461 35,200 -1,850 Descending Fort Worth Center
Tue 06:33:40 PM 32.4461 -92.3131 270° West 401 461 36,300 1,050 Climbing Fort Worth Center
Tue 06:34:40 PM 32.4469 -92.4383 270° West 396 456 37,300 900 Climbing Fort Worth Center
Tue 06:35:40 PM 32.4481 -92.5739 271° West 384 442 38,100 800 Climbing Fort Worth Center
Tue 06:36:40 PM 32.4486 -92.6969 270° West 379 436 38,900 800 Climbing Fort Worth Center
Tue 06:37:40 PM 32.4533 -92.8222 273° West 386 444 39,700 550 Climbing Fort Worth Center
Tue 06:38:40 PM 32.4556 -92.9475 271° West 386 444 40,000 150 Climbing Fort Worth Center
Tue 06:39:40 PM 32.4581 -93.0756 271° West 386 444 40,000  Level Fort Worth Center
Tue 06:40:40 PM 32.4583 -93.2033 270° West 386 444 40,000  Level Fort Worth Center
Tue 06:41:40 PM 32.4583 -93.3339 270° West 386 444 40,000  Level Fort Worth Center
Tue 06:42:40 PM 32.4583 -93.4644 270° West 391 450 40,000  Level Fort Worth Center
Tue 06:43:40 PM 32.4583 -93.5972 270° West 398 458 40,000  Level Fort Worth Center
Tue 06:44:40 PM 32.4619 -93.7203 272° West 398 458 40,000  Level Fort Worth Center
Tue 06:45:40 PM 32.4594 -93.8508 269° West 398 458 40,000  Level Fort Worth Center
Tue 06:46:40 PM 32.4569 -93.9864 269° West 403 464 40,000  Level Fort Worth Center
Tue 06:47:40 PM 32.4583 -94.1119 271° West 403 464 40,000  Level Fort Worth Center
Tue 06:48:40 PM 32.4575 -94.2422 270° West 403 464 40,000  Level Fort Worth Center
Tue 06:49:40 PM 32.4564 -94.3728 269° West 403 464 40,000  Level Fort Worth Center
Tue 06:50:40 PM 32.4547 -94.4811 269° West 403 464 40,000  Level Fort Worth Center
Tue 06:51:40 PM 32.4517 -94.6242 269° West 403 464 40,000  Level Fort Worth Center
Tue 06:52:40 PM 32.4525 -94.7544 270° West 403 464 40,000  Level Fort Worth Center
Tue 06:53:40 PM 32.4489 -94.8850 268° West 403 464 40,000  Level Fort Worth Center
Tue 06:54:40 PM 32.4517 -95.0228 271° West 408 470 40,000  Level Fort Worth Center
Tue 06:55:40 PM 32.4519 -95.1558 270° West 408 470 40,000  Level Fort Worth Center
Tue 06:56:40 PM 32.4481 -95.2914 268° West 408 470 40,000  Level Fort Worth Center
Tue 06:57:40 PM 32.4461 -95.4267 269° West 408 470 40,000  Level Fort Worth Center
Tue 06:58:40 PM 32.4461 -95.5622 270° West 408 470 40,000  Level Fort Worth Center
Tue 06:59:40 PM 32.4417 -95.6953 268° West 408 470 40,000  Level Fort Worth Center
Tue 07:00:40 PM 32.4414 -95.8306 270° West 408 470 40,000  Level Fort Worth Center
Tue 07:01:40 PM 32.4389 -95.9636 269° West 408 470 40,000  Level Fort Worth Center
Tue 07:02:40 PM 32.4364 -96.1114 269° West 408 470 40,000  Level Fort Worth Center
Tue 07:03:40 PM 32.4333 -96.2319 268° West 408 470 40,000  Level Fort Worth Center
Tue 07:04:40 PM 32.4283 -96.3772 268° West 403 464 40,000  Level Fort Worth Center
Tue 07:05:40 PM 32.4250 -96.4978 268° West 403 464 40,000  Level Fort Worth Center
Tue 07:06:40 PM 32.4219 -96.6481 269° West 403 464 40,000  Level Fort Worth Center
Tue 07:07:40 PM 32.4206 -96.7661 269° West 403 464 40,000  Level Fort Worth Center
Tue 07:08:40 PM 32.4147 -96.9114 267° West 403 464 40,000  Level Fort Worth Center
Tue 07:09:40 PM 32.4111 -97.0319 268° West 403 464 40,000  Level Fort Worth Center
Tue 07:10:40 PM 32.4072 -97.1772 268° West 403 464 40,000  Level Fort Worth Center
Tue 07:11:40 PM 32.4033 -97.2928 268° West 403 464 40,000  Level Fort Worth Center
Tue 07:12:40 PM 32.4011 -97.4431 269° West 403 464 40,000  Level Fort Worth Center
Tue 07:13:40 PM 32.3969 -97.5611 268° West 403 464 40,000  Level Fort Worth Center
Tue 07:14:40 PM 32.3906 -97.7086 267° West 403 464 40,000  Level Fort Worth Center
Tue 07:15:40 PM 32.3881 -97.8292 269° West 403 464 40,000  Level Fort Worth Center
Tue 07:16:40 PM 32.3811 -97.9817 267° West 410 472 40,000  Level Fort Worth Center
Tue 07:17:40 PM 32.3783 -98.0997 268° West 410 472 40,000  Level Fort Worth Center
Tue 07:18:40 PM 32.3733 -98.2497 268° West 415 478 40,000  Level Fort Worth Center
Tue 07:19:40 PM 32.3683 -98.3750 267° West 420 483 40,000  Level Fort Worth Center
Tue 07:20:40 PM 32.3608 -98.5203 267° West 420 483 40,000  Level Fort Worth Center
Tue 07:21:40 PM 32.3553 -98.6553 267° West 420 483 40,000  Level Fort Worth Center
Tue 07:22:40 PM 32.3497 -98.7881 267° West 420 483 40,000  Level Fort Worth Center
Tue 07:23:40 PM 32.3461 -98.9233 268° West 420 483 40,000  Level Fort Worth Center
Tue 07:24:40 PM 32.3406 -99.0411 267° West 420 483 40,000  Level Fort Worth Center
Tue 07:25:40 PM 32.3347 -99.1714 267° West 415 478 40,000  Level Fort Worth Center
Tue 07:26:40 PM 32.3283 -99.3064 267° West 410 472 40,000  Level Fort Worth Center
Tue 07:27:40 PM 32.3222 -99.4392 267° West 410 472 40,000  Level Fort Worth Center
Tue 07:28:40 PM 32.3158 -99.5692 267° West 405 466 40,000  Level Fort Worth Center
Tue 07:29:40 PM 32.3072 -99.7042 266° West 405 466 40,000  Level Fort Worth Center
Tue 07:30:40 PM 32.3028 -99.8344 268° West 405 466 40,000  Level Fort Worth Center
Tue 07:31:40 PM 32.2958 -99.9644 266° West 405 466 40,000  Level Fort Worth Center
Tue 07:32:40 PM 32.2911 -100.0969 268° West 405 466 40,000  Level Fort Worth Center
Tue 07:33:40 PM 32.2819 -100.2269 265° West 405 466 40,000  Level Fort Worth Center
Tue 07:34:40 PM 32.2769 -100.3569 267° West 405 466 40,000  Level Fort Worth Center
Tue 07:35:40 PM 32.2697 -100.4869 266° West 405 466 40,000  Level Fort Worth Center
Tue 07:36:40 PM 32.2622 -100.6194 266° West 400 460 40,000  Level Fort Worth Center
Tue 07:37:40 PM 32.2544 -100.7494 266° West 400 460 40,000  Level Fort Worth Center
Tue 07:38:40 PM 32.2489 -100.8817 267° West 400 460 40,000  Level Fort Worth Center
Tue 07:39:40 PM 32.2411 -101.0092 266° West 400 460 40,000  Level Fort Worth Center
Tue 07:40:40 PM 32.2328 -101.1536 266° West 400 460 40,000  Level Fort Worth Center
Tue 07:41:40 PM 32.2247 -101.2811 266° West 400 460 40,000  Level Fort Worth Center
Tue 07:42:40 PM 32.2144 -101.4108 265° West 400 460 40,000  Level Fort Worth Center
Tue 07:43:40 PM 32.2061 -101.5381 266° West 400 460 40,000  Level Fort Worth Center
Tue 07:44:40 PM 32.1997 -101.6678 267° West 400 460 40,000  Level Fort Worth Center
Tue 07:45:40 PM 32.1911 -101.7925 265° West 400 460 40,000  Level Fort Worth Center
Tue 07:46:40 PM 32.1825 -101.9222 266° West 400 460 40,000  Level Fort Worth Center
Tue 07:47:40 PM 32.1736 -102.0519 265° West 400 460 40,000  Level Fort Worth Center
Tue 07:48:40 PM 32.1647 -102.1792 265° West 400 460 40,000  Level Fort Worth Center
Tue 07:49:40 PM 32.1575 -102.3061 266° West 400 460 40,000  Level Fort Worth Center
Tue 07:50:40 PM 32.1464 -102.4331 264° West 400 460 40,000  Level Fort Worth Center
Tue 07:51:40 PM 32.1392 -102.5603 266° West 400 460 40,000  Level Fort Worth Center
Tue 07:53:42 PM 32.1208 -102.8094 265° West 388 447 40,000  Level Albuquerque Center
Tue 07:54:44 PM 32.1094 -102.9336 264° West 384 442 40,000  Level Albuquerque Center
Tue 07:55:45 PM 32.1022 -103.0581 266° West 382 440 40,000  Level Albuquerque Center
Tue 07:56:47 PM 32.1008 -103.1831 269° West 381 438 40,000  Level Albuquerque Center
Tue 07:57:49 PM 32.0933 -103.3058 266° West 379 436 40,000  Level Albuquerque Center
Tue 07:58:50 PM 32.0872 -103.4281 267° West 377 434 40,000  Level Albuquerque Center
Tue 07:59:52 PM 32.0800 -103.5750 267° West 375 432 40,000  Level Albuquerque Center
Tue 08:00:54 PM 32.0739 -103.6975 267° West 375 432 40,000  Level Albuquerque Center
Tue 08:01:55 PM 32.0675 -103.8183 266° West 373 429 40,000 -98 Level Albuquerque Center
Tue 08:02:57 PM 32.0608 -103.9397 266° West 372 428 39,800 -726 Descending Albuquerque Center
Tue 08:03:59 PM 32.0533 -104.0639 266° West 372 428 38,500 -1,306 Descending Albuquerque Center
Tue 08:05:01 PM 32.0456 -104.1906 266° West 382 440 37,100 -1,220 Descending Albuquerque Center
Tue 08:06:02 PM 32.0397 -104.3217 267° West 395 455 36,000 -1,024 Descending Albuquerque Center
Tue 08:07:04 PM 32.0325 -104.4558 266° West 408 470 35,000 -1,016 Descending Albuquerque Center
Tue 08:08:06 PM 32.0136 -104.6175 262° West 415 478 33,900 -823 Descending Albuquerque Center
Tue 08:09:08 PM 31.9714 -104.7375 248° West 410 472 33,300 -1,610 Descending Albuquerque Center
Tue 08:10:09 PM 31.9231 -104.8642 246° West 421 484 30,600 -2,341 Descending Albuquerque Center
Tue 08:11:11 PM 31.8736 -104.9906 245° Southwest 427 491 28,500 -1,984 Descending Albuquerque Center
Tue 08:12:13 PM 31.8569 -105.1203 261° West 424 488 26,500 -2,732 Descending Albuquerque Center
Tue 08:13:14 PM 31.8544 -105.2511 269° West 410 472 22,900 -3,543 Descending Albuquerque Center
Tue 08:14:20 PM 31.8456 -105.4136 266° West 407 468 19,000 -2,806 Descending Albuquerque Center
Tue 08:15:18 PM 31.8439 -105.5364 269° West 386 444 17,100 -2,200 Descending Albuquerque Center
Tue 08:16:20 PM 31.8383 -105.6533 267° West 363 418 14,600 -2,169 Descending Albuquerque Center
Tue 08:17:28 PM 31.8331 -105.7797 267° West 321 369 12,400 -1,268 Descending Albuquerque Center
Tue 08:18:23 PM 31.8300 -105.8594 267° West 311 358 12,000 -522 Descending Albuquerque Center
Tue 08:19:23 PM 31.8264 -105.9742 268° West 316 364 11,400 -1,684 Descending Albuquerque Center
Tue 08:20:17 PM 31.8225 -106.0578 267° West 299 344 8,800 -1,930 Descending Albuquerque Center
Tue 08:21:18 PM 31.8175 -106.1467 266° West 270 311 7,700 -1,131 Descending Albuquerque Center
Tue 08:22:19 PM 31.8086 -106.2264 263° West 243 280 6,500 -843 Descending Albuquerque Center
Tue 08:23:19 PM 31.8011 -106.2906 262° West 207 238 6,000 -645 Descending Albuquerque Center
Tue 08:24:20 PM 31.7931 -106.3403 259° West 173 199 5,200 -787 Descending Albuquerque Center
Tue 08:26:00 PM 31.8000 -106.3667 270° West  Level FlightAware Approximate
Tue 08:33:00 PM 31.8072 -106.3764 270° West  Level Estimated
Tue 08:34:00 PM 31.8072 -106.3764 270° West  Level Estimated
Tue 08:35:00 PM 31.8072 -106.3764 270° West  Level Estimated
Tue 08:36:00 PM 31.8072 -106.3764 270° West  Level Estimated
Tue 08:37:00 PM 31.8072 -106.3764 270° West  Level Estimated
Tue 08:38:00 PM 31.8072 -106.3764 270° West  Level Estimated
Tue 08:39:00 PM 31.8072 -106.3764 270° West  Level Estimated

Login

Don't have an account? Register now (free) for customized features, flight alerts, and more!